Time;durP1;ratioP1;P1;durP2;ratioP2;P2;SDS_P1;SDS_P2;PMS_P1;PMS_P2;Temp;Humidity;BMP_temperature;BMP_pressure;BME280_temperature;BME280_humidity;BME280_pressure;Samples;Min_cycle;Max_cycle;Signal;HPM_P1;HPM_P2
2023/09/28 00:01:02;;;;;;;7.13;4.60;;;20.30;85.70;;;;;;5058670;28;20048;-80
2023/09/28 00:03:28;;;;;;;7.47;4.80;;;20.20;85.90;;;;;;5076334;28;20048;-81
2023/09/28 00:05:54;;;;;;;7.50;5.05;;;20.20;86.20;;;;;;5058720;28;20103;-81
2023/09/28 00:08:19;;;;;;;5.97;4.70;;;20.10;86.30;;;;;;5058498;28;20033;-81
2023/09/28 00:10:45;;;;;;;5.20;4.25;;;20.20;86.30;;;;;;5041867;28;20033;-81
2023/09/28 00:13:11;;;;;;;5.45;4.28;;;20.20;86.20;;;;;;5042033;28;20017;-81
2023/09/28 00:15:37;;;;;;;6.20;4.13;;;20.10;86.30;;;;;;5076120;28;20044;-81
2023/09/28 00:18:04;;;;;;;6.10;4.32;;;20.10;86.30;;;;;;5058600;28;20036;-81
2023/09/28 00:20:30;;;;;;;8.57;4.75;;;20.20;86.30;;;;;;5058157;28;20017;-81
2023/09/28 00:22:56;;;;;;;6.28;4.50;;;20.30;86.10;;;;;;5058438;28;20021;-80
2023/09/28 00:25:23;;;;;;;6.45;4.40;;;20.20;86.10;;;;;;5075811;28;20024;-81
2023/09/28 00:27:50;;;;;;;6.22;4.30;;;20.30;86.10;;;;;;5041592;28;20051;-81
2023/09/28 00:30:20;;;;;;;7.70;4.20;;;20.20;85.80;;;;;;5041764;28;20032;-81
2023/09/28 00:32:46;;;;;;;5.85;4.30;;;20.20;85.90;;;;;;5058006;28;20025;-81
2023/09/28 00:35:13;;;;;;;6.07;4.10;;;20.20;86.00;;;;;;5041223;28;20028;-81
2023/09/28 00:37:40;;;;;;;9.70;4.65;;;20.20;86.00;;;;;;5057833;28;20025;-81
2023/09/28 00:40:19;;;;;;;5.72;3.92;;;20.30;85.90;;;;;;5058277;28;20025;-81
2023/09/28 00:42:46;;;;;;;7.57;4.20;;;20.20;85.80;;;;;;5028274;28;20025;-81
2023/09/28 00:45:12;;;;;;;7.25;3.88;;;20.30;85.90;;;;;;5041220;28;20464;-81
2023/09/28 00:47:39;;;;;;;5.88;4.15;;;20.30;85.90;;;;;;5041346;28;20056;-81
2023/09/28 00:50:14;;;;;;;6.93;4.25;;;20.20;85.80;;;;;;5057622;28;20025;-81
2023/09/28 00:52:42;;;;;;;4.97;4.22;;;20.20;85.60;;;;;;5075474;28;20055;-81
2023/09/28 00:55:09;;;;;;;5.60;4.13;;;20.20;85.60;;;;;;5075210;28;20029;-81
2023/09/28 00:57:38;;;;;;;5.93;4.20;;;20.20;85.80;;;;;;5074857;28;20024;-81
2023/09/28 01:00:18;;;;;;;6.40;4.40;;;20.20;85.90;;;;;;5041450;28;20033;-81
2023/09/28 01:02:46;;;;;;;5.20;4.05;;;20.10;86.10;;;;;;5057472;28;20021;-81
2023/09/28 01:05:13;;;;;;;5.95;4.68;;;20.00;86.40;;;;;;5075081;28;20033;-82
2023/09/28 01:07:39;;;;;;;6.78;3.90;;;20.00;86.50;;;;;;5057646;28;20033;-81
2023/09/28 01:10:09;;;;;;;7.95;4.40;;;19.90;86.80;;;;;;5040844;28;20051;-81
2023/09/28 01:12:38;;;;;;;7.25;4.40;;;19.90;86.90;;;;;;5075125;28;20025;-81
2023/09/28 01:15:09;;;;;;;6.25;4.50;;;19.90;87.00;;;;;;5057792;28;20028;-81
2023/09/28 01:17:36;;;;;;;8.97;4.93;;;19.90;87.20;;;;;;5074952;28;20031;-81
2023/09/28 01:20:10;;;;;;;7.03;4.63;;;19.90;87.20;;;;;;5040583;28;20032;-81
2023/09/28 01:22:35;;;;;;;5.30;4.10;;;19.90;87.10;;;;;;5041661;28;20088;-81
2023/09/28 01:25:03;;;;;;;5.28;4.20;;;19.90;87.80;;;;;;5040601;28;20049;-81
2023/09/28 01:27:29;;;;;;;5.32;4.22;;;19.90;87.10;;;;;;5057286;28;20096;-81
2023/09/28 01:29:54;;;;;;;8.35;4.03;;;19.90;87.00;;;;;;5056947;28;20033;-80
2023/09/28 01:32:20;;;;;;;8.43;4.13;;;19.80;87.20;;;;;;5056930;28;20044;-81
2023/09/28 01:34:45;;;;;;;6.13;4.68;;;19.70;87.50;;;;;;5074491;28;20040;-81
2023/09/28 01:37:11;;;;;;;7.30;4.70;;;19.70;87.60;;;;;;5056951;28;20028;-81
2023/09/28 01:39:38;;;;;;;6.32;4.53;;;19.80;87.70;;;;;;5056945;28;20025;-81
2023/09/28 01:42:03;;;;;;;5.30;3.95;;;19.80;87.50;;;;;;5040355;28;20096;-81
2023/09/28 01:44:29;;;;;;;6.20;4.32;;;19.70;87.60;;;;;;5040139;28;20040;-81
2023/09/28 01:46:55;;;;;;;5.70;4.28;;;19.60;87.90;;;;;;5056844;28;20033;-82
2023/09/28 01:49:21;;;;;;;7.47;4.43;;;19.60;88.00;;;;;;5074240;28;20033;-81
2023/09/28 01:51:46;;;;;;;6.60;4.63;;;19.60;88.00;;;;;;5056597;28;20025;-81
2023/09/28 01:54:12;;;;;;;7.55;4.28;;;19.60;88.30;;;;;;5055586;28;20048;-81
2023/09/28 01:56:38;;;;;;;6.68;4.70;;;19.60;89.30;;;;;;5056463;28;20068;-81
2023/09/28 01:59:03;;;;;;;6.82;4.85;;;19.60;88.60;;;;;;5056579;28;20049;-81
2023/09/28 02:01:31;;;;;;;6.88;4.22;;;19.60;88.40;;;;;;5056359;28;20057;-82
2023/09/28 02:03:57;;;;;;;6.32;4.35;;;19.60;88.40;;;;;;5056208;28;20021;-81
2023/09/28 02:06:22;;;;;;;6.47;4.40;;;19.60;88.40;;;;;;5039788;28;20096;-81
2023/09/28 02:08:48;;;;;;;7.20;4.53;;;19.50;88.50;;;;;;5073864;28;20025;-82
2023/09/28 02:11:14;;;;;;;8.63;4.55;;;19.50;88.70;;;;;;5073793;28;20040;-81
2023/09/28 02:13:41;;;;;;;7.63;4.50;;;19.50;88.70;;;;;;5056231;28;20031;-81
2023/09/28 02:16:11;;;;;;;6.57;4.30;;;19.40;89.00;;;;;;5039731;28;20017;-81
2023/09/28 02:18:37;;;;;;;6.03;4.60;;;19.40;89.20;;;;;;5056337;28;20025;-81
2023/09/28 02:21:03;;;;;;;6.30;4.32;;;19.40;89.40;;;;;;5039625;28;20048;-82
2023/09/28 02:23:29;;;;;;;8.40;4.75;;;19.40;89.50;;;;;;5055848;28;20037;-81
2023/09/28 02:25:54;;;;;;;6.60;5.00;;;19.40;89.50;;;;;;5039583;28;20025;-81
2023/09/28 02:28:20;;;;;;;7.90;4.68;;;19.40;89.30;;;;;;5056025;28;20037;-81
2023/09/28 02:30:45;;;;;;;6.72;5.05;;;19.40;89.30;;;;;;5039403;28;20021;-81
2023/09/28 02:33:11;;;;;;;6.68;4.90;;;19.40;89.60;;;;;;5039328;28;20390;-81
2023/09/28 02:35:37;;;;;;;7.10;4.60;;;19.30;89.70;;;;;;5055889;28;20021;-81
2023/09/28 02:38:03;;;;;;;8.93;4.45;;;19.30;90.00;;;;;;5039275;28;20025;-81
2023/09/28 02:40:29;;;;;;;6.35;4.35;;;19.20;90.00;;;;;;5039293;28;20108;-81
2023/09/28 02:42:55;;;;;;;6.40;4.40;;;19.20;90.10;;;;;;5055930;28;20017;-82
2023/09/28 02:45:21;;;;;;;6.70;4.40;;;19.20;90.20;;;;;;5055747;28;20045;-82
2023/09/28 02:47:48;;;;;;;7.85;4.63;;;19.20;90.10;;;;;;5073192;28;20051;-82
2023/09/28 02:50:16;;;;;;;6.50;4.70;;;19.30;90.20;;;;;;5073334;28;20024;-81
2023/09/28 02:52:46;;;;;;;5.97;4.40;;;19.20;90.20;;;;;;5056112;28;20406;-81
2023/09/28 02:55:13;;;;;;;8.57;4.90;;;19.20;90.20;;;;;;5055635;28;20403;-81
2023/09/28 02:57:39;;;;;;;6.80;4.57;;;19.20;90.20;;;;;;5038944;28;20515;-81
2023/09/28 03:00:16;;;;;;;7.45;4.85;;;19.20;90.40;;;;;;5073154;28;20067;-82
2023/09/28 03:02:42;;;;;;;5.75;4.65;;;19.10;90.30;;;;;;5055513;28;20032;-81
2023/09/28 03:05:08;;;;;;;6.18;4.32;;;19.10;90.40;;;;;;5040461;28;20021;-82
2023/09/28 03:07:34;;;;;;;6.80;4.63;;;19.10;90.50;;;;;;5059808;28;20476;-81
2023/09/28 03:10:02;;;;;;;9.32;4.35;;;19.20;90.50;;;;;;5059509;28;20025;-81
2023/09/28 03:12:28;;;;;;;6.50;4.60;;;19.10;90.60;;;;;;5077189;28;20096;-82
2023/09/28 03:14:53;;;;;;;6.13;4.53;;;19.10;90.60;;;;;;5026516;28;20388;-81
2023/09/28 03:17:19;;;;;;;6.00;4.88;;;19.00;90.60;;;;;;5042903;28;20013;-81
2023/09/28 03:19:44;;;;;;;8.48;4.57;;;19.00;90.60;;;;;;5043014;28;20075;-81
2023/09/28 03:22:10;;;;;;;6.65;4.72;;;19.10;90.70;;;;;;5059397;28;20025;-81
2023/09/28 03:24:36;;;;;;;7.32;4.68;;;19.00;90.80;;;;;;5042867;28;20025;-81
2023/09/28 03:27:03;;;;;;;9.68;5.07;;;18.90;90.70;;;;;;5059239;28;20096;-81
2023/09/28 03:29:28;;;;;;;7.38;4.80;;;19.00;90.80;;;;;;5076841;28;20056;-81
2023/09/28 03:31:54;;;;;;;6.80;4.75;;;19.00;90.90;;;;;;5059264;28;20029;-81
2023/09/28 03:34:19;;;;;;;7.00;4.82;;;18.90;91.10;;;;;;5059153;28;20412;-81
2023/09/28 03:36:45;;;;;;;9.90;4.72;;;18.90;91.00;;;;;;5059344;28;20017;-81
2023/09/28 03:39:11;;;;;;;8.18;5.43;;;18.80;91.10;;;;;;5059157;28;20036;-82
2023/09/28 03:41:37;;;;;;;7.95;4.68;;;18.80;91.30;;;;;;5059050;28;20033;-81
2023/09/28 03:44:03;;;;;;;7.03;5.05;;;18.70;91.30;;;;;;5042586;28;20025;-81
2023/09/28 03:46:29;;;;;;;8.43;4.78;;;18.70;91.40;;;;;;5058985;28;20059;-81
2023/09/28 03:48:54;;;;;;;7.88;5.10;;;18.70;91.50;;;;;;5058986;28;20033;-81
2023/09/28 03:51:20;;;;;;;5.88;4.47;;;18.70;91.60;;;;;;5042442;28;20027;-81
2023/09/28 03:53:46;;;;;;;9.45;5.20;;;18.70;91.50;;;;;;5058889;28;20033;-82
2023/09/28 03:56:11;;;;;;;7.10;4.47;;;18.60;91.60;;;;;;5042197;28;20025;-81
2023/09/28 03:58:37;;;;;;;8.10;5.05;;;18.50;92.20;;;;;;5058611;28;20056;-81
2023/09/28 04:01:07;;;;;;;10.38;5.10;;;18.50;91.90;;;;;;5058729;28;20051;-81
2023/09/28 04:03:33;;;;;;;7.57;4.90;;;18.60;92.00;;;;;;5059477;28;20028;-81
2023/09/28 04:05:59;;;;;;;7.38;4.65;;;18.60;91.90;;;;;;5042268;28;20032;-81
2023/09/28 04:08:24;;;;;;;7.60;4.50;;;18.70;91.90;;;;;;5058585;28;20557;-81
2023/09/28 04:10:50;;;;;;;6.78;4.38;;;18.70;91.90;;;;;;5076138;28;20037;-81
2023/09/28 04:13:17;;;;;;;8.82;5.47;;;18.70;91.90;;;;;;5058628;28;20021;-82
2023/09/28 04:15:42;;;;;;;7.72;4.50;;;18.80;91.80;;;;;;5075780;28;20021;-82
2023/09/28 04:18:08;;;;;;;7.63;5.03;;;18.70;91.80;;;;;;5057409;28;20017;-81
2023/09/28 04:20:35;;;;;;;7.80;4.97;;;18.70;91.90;;;;;;5058473;28;20535;-81
2023/09/28 04:23:05;;;;;;;9.02;4.57;;;18.70;92.00;;;;;;5058521;28;20071;-81
2023/09/28 04:25:32;;;;;;;7.88;5.18;;;18.70;92.00;;;;;;5075988;28;20025;-82
2023/09/28 04:27:57;;;;;;;6.72;4.90;;;18.70;91.90;;;;;;5058408;28;20029;-81
2023/09/28 04:30:23;;;;;;;6.57;4.65;;;18.60;92.00;;;;;;5041478;28;20036;-81
2023/09/28 04:32:50;;;;;;;11.43;4.88;;;18.60;92.00;;;;;;5057921;28;20119;-79
2023/09/28 04:35:17;;;;;;;9.55;5.70;;;18.60;92.00;;;;;;5075457;28;20029;-83
2023/09/28 04:37:43;;;;;;;8.75;4.90;;;18.60;91.90;;;;;;5057974;28;20029;-80
2023/09/28 04:40:10;;;;;;;8.30;4.75;;;18.60;91.90;;;;;;5075571;28;20051;-80
2023/09/28 04:42:36;;;;;;;6.00;4.65;;;18.50;91.90;;;;;;5058160;28;20464;-80
2023/09/28 04:45:02;;;;;;;6.13;4.65;;;18.50;91.90;;;;;;5057754;28;20063;-81
2023/09/28 04:47:28;;;;;;;6.13;4.78;;;18.50;92.10;;;;;;5075427;28;20013;-81
2023/09/28 04:49:55;;;;;;;11.25;4.97;;;18.50;92.20;;;;;;5041276;28;20056;-81
2023/09/28 04:52:22;;;;;;;6.60;4.68;;;18.50;92.10;;;;;;5041350;28;20035;-81
2023/09/28 04:54:49;;;;;;;9.05;4.97;;;18.40;92.00;;;;;;5057595;28;20020;-81
2023/09/28 04:57:15;;;;;;;7.65;5.07;;;18.40;92.10;;;;;;5041301;28;20036;-80
2023/09/28 04:59:41;;;;;;;8.32;5.03;;;18.30;92.30;;;;;;5057315;28;20049;-81
2023/09/28 05:02:08;;;;;;;7.22;5.10;;;18.30;92.50;;;;;;5057707;28;20043;-80
2023/09/28 05:04:34;;;;;;;6.75;4.72;;;18.30;92.60;;;;;;5040828;28;20055;-80
2023/09/28 05:07:01;;;;;;;8.93;5.22;;;18.30;92.50;;;;;;5057566;28;20092;-80
2023/09/28 05:09:27;;;;;;;7.32;5.00;;;18.40;92.40;;;;;;5057266;28;20036;-80
2023/09/28 05:11:53;;;;;;;8.18;4.70;;;18.40;92.30;;;;;;5024610;28;20029;-81
2023/09/28 05:14:24;;;;;;;8.27;5.25;;;18.40;92.30;;;;;;5074796;28;20044;-79
2023/09/28 05:16:50;;;;;;;7.68;4.97;;;18.40;92.30;;;;;;5041232;28;20025;-80
2023/09/28 05:19:16;;;;;;;9.02;5.00;;;18.40;92.30;;;;;;5057375;28;20022;-80
2023/09/28 05:21:41;;;;;;;7.32;4.70;;;18.50;92.70;;;;;;5057164;28;20122;-80
2023/09/28 05:24:07;;;;;;;7.40;5.10;;;18.40;92.30;;;;;;5074737;28;20025;-80
2023/09/28 05:26:35;;;;;;;7.68;4.65;;;18.40;92.40;;;;;;5040491;28;20116;-80
2023/09/28 05:29:00;;;;;;;7.22;4.35;;;18.40;92.40;;;;;;5040400;28;20036;-82
2023/09/28 05:31:26;;;;;;;10.90;5.05;;;18.50;92.40;;;;;;5040418;28;20029;-81
2023/09/28 05:33:52;;;;;;;7.45;4.80;;;18.50;92.40;;;;;;5040201;28;20037;-82
2023/09/28 05:36:18;;;;;;;7.97;4.38;;;18.50;92.30;;;;;;5057052;28;20025;-82
2023/09/28 05:38:43;;;;;;;6.65;5.05;;;18.40;92.20;;;;;;5074487;28;20021;-82
2023/09/28 05:41:09;;;;;;;7.53;4.88;;;18.30;92.20;;;;;;5074398;28;20067;-82
2023/09/28 05:43:35;;;;;;;8.60;5.20;;;18.30;92.30;;;;;;5056860;28;20051;-82
2023/09/28 05:46:00;;;;;;;9.52;5.20;;;18.30;92.40;;;;;;5056814;28;20490;-82
2023/09/28 05:48:26;;;;;;;7.60;4.88;;;18.20;92.60;;;;;;5040031;28;20056;-82
2023/09/28 05:50:53;;;;;;;10.05;5.47;;;18.10;92.70;;;;;;5039986;28;20033;-82
2023/09/28 05:53:19;;;;;;;7.65;5.38;;;18.10;92.80;;;;;;5056369;28;20052;-82
2023/09/28 05:55:45;;;;;;;10.18;5.20;;;18.10;92.80;;;;;;5056551;28;20025;-82
2023/09/28 05:58:10;;;;;;;9.20;5.05;;;18.10;92.90;;;;;;5039776;28;20060;-80
2023/09/28 06:00:37;;;;;;;7.65;4.70;;;18.10;93.00;;;;;;5056437;28;20040;-80
2023/09/28 06:03:04;;;;;;;10.02;5.28;;;18.10;93.20;;;;;;5056656;28;20025;-80
2023/09/28 06:05:29;;;;;;;9.38;5.10;;;18.10;93.20;;;;;;5056500;28;20112;-80
2023/09/28 06:07:55;;;;;;;7.72;4.53;;;18.10;93.20;;;;;;5056431;28;20033;-80
2023/09/28 06:10:21;;;;;;;6.50;4.60;;;18.00;93.60;;;;;;5073822;28;20021;-81
2023/09/28 06:12:46;;;;;;;8.10;4.88;;;18.00;94.00;;;;;;5039675;28;20033;-82
2023/09/28 06:15:12;;;;;;;10.10;4.93;;;18.00;93.50;;;;;;5073699;28;20033;-82
2023/09/28 06:17:38;;;;;;;9.73;5.30;;;18.00;93.50;;;;;;5056006;28;20033;-81
2023/09/28 06:20:05;;;;;;;11.30;5.32;;;18.00;93.60;;;;;;5039674;28;20022;-82
2023/09/28 06:22:30;;;;;;;9.23;4.72;;;17.90;93.70;;;;;;5039552;28;20044;-82
2023/09/28 06:24:56;;;;;;;7.57;4.72;;;17.90;93.80;;;;;;5056137;28;20092;-81
2023/09/28 06:27:25;;;;;;;10.18;5.22;;;18.00;93.70;;;;;;5073541;28;20029;-81
2023/09/28 06:29:52;;;;;;;7.65;4.57;;;17.90;93.70;;;;;;5039845;28;20391;-82
2023/09/28 06:32:19;;;;;;;9.55;5.13;;;17.90;93.70;;;;;;5039712;28;20052;-82
2023/09/28 06:34:45;;;;;;;10.80;4.90;;;18.00;93.70;;;;;;5039259;28;20088;-81
2023/09/28 06:37:10;;;;;;;8.55;5.55;;;18.00;93.70;;;;;;5022814;28;20048;-81
2023/09/28 06:39:37;;;;;;;8.57;4.93;;;18.00;93.70;;;;;;5038676;28;20048;-81
2023/09/28 06:42:04;;;;;;;9.88;5.68;;;18.00;93.60;;;;;;5023140;28;20025;-82
2023/09/28 06:44:30;;;;;;;7.57;4.82;;;18.10;93.60;;;;;;5055824;28;20029;-82
2023/09/28 06:46:57;;;;;;;11.52;5.00;;;18.00;93.60;;;;;;5055604;28;20020;-81
2023/09/28 06:49:23;;;;;;;13.07;5.13;;;18.10;93.70;;;;;;5055591;28;20025;-80
2023/09/28 06:51:49;;;;;;;9.35;5.00;;;18.10;93.70;;;;;;5039201;28;20074;-80
2023/09/28 06:54:15;;;;;;;11.20;5.93;;;18.00;93.80;;;;;;5055464;28;20033;-81
2023/09/28 06:56:41;;;;;;;12.68;5.82;;;18.10;93.80;;;;;;5039049;28;20133;-81
2023/09/28 06:59:07;;;;;;;8.70;4.88;;;18.20;93.80;;;;;;5055347;28;20056;-81
2023/09/28 07:01:33;;;;;;;10.38;5.00;;;18.20;93.70;;;;;;5039047;28;20021;-81
2023/09/28 07:03:59;;;;;;;8.35;4.82;;;18.20;93.80;;;;;;5073290;28;20065;-81
2023/09/28 07:06:25;;;;;;;9.75;4.45;;;18.20;93.70;;;;;;5039071;28;20052;-82
2023/09/28 07:08:52;;;;;;;8.55;5.03;;;18.20;93.80;;;;;;5055446;28;20100;-81
2023/09/28 07:11:19;;;;;;;9.18;4.82;;;18.20;93.80;;;;;;5055481;28;20029;-81
2023/09/28 07:13:46;;;;;;;14.05;5.47;;;18.20;93.80;;;;;;5055356;28;20025;-81
2023/09/28 07:16:11;;;;;;;11.48;5.53;;;18.20;93.90;;;;;;5055402;28;20029;-81
2023/09/28 07:18:37;;;;;;;11.25;5.28;;;18.20;93.80;;;;;;5055274;28;20039;-81
2023/09/28 07:21:03;;;;;;;12.68;6.00;;;18.30;94.10;;;;;;5072988;28;20021;-81
2023/09/28 07:23:28;;;;;;;11.32;5.80;;;18.30;93.60;;;;;;5072904;28;20082;-80
2023/09/28 07:25:55;;;;;;;11.88;5.55;;;18.30;93.70;;;;;;5055301;28;20032;-81
2023/09/28 07:28:21;;;;;;;14.10;5.95;;;18.40;93.80;;;;;;5055554;28;20025;-81
2023/09/28 07:30:47;;;;;;;11.82;5.50;;;18.50;93.70;;;;;;5055388;28;20021;-81
2023/09/28 07:33:14;;;;;;;13.63;5.57;;;18.40;93.50;;;;;;5055054;28;20033;-81
2023/09/28 07:35:43;;;;;;;8.88;5.70;;;18.50;93.30;;;;;;5054984;28;20097;-81
2023/09/28 07:38:09;;;;;;;11.45;4.30;;;18.60;93.20;;;;;;5055191;28;20026;-81
2023/09/28 07:40:34;;;;;;;15.55;4.80;;;18.60;93.00;;;;;;5072737;28;20024;-81
2023/09/28 07:43:00;;;;;;;16.35;3.95;;;18.70;93.00;;;;;;5038326;28;20029;-81
2023/09/28 07:45:26;;;;;;;12.65;4.57;;;18.70;92.80;;;;;;5038676;28;20064;-81
2023/09/28 07:47:51;;;;;;;12.13;3.60;;;18.70;92.50;;;;;;5072699;28;20136;-81
2023/09/28 07:50:17;;;;;;;10.73;3.90;;;18.70;92.40;;;;;;5038562;28;20096;-81
2023/09/28 07:52:43;;;;;;;12.77;3.53;;;18.60;92.10;;;;;;5058889;28;20028;-81
2023/09/28 07:55:10;;;;;;;12.65;3.60;;;18.60;92.30;;;;;;5058777;28;20033;-81
2023/09/28 07:57:36;;;;;;;14.95;3.20;;;18.70;92.20;;;;;;5042308;28;20128;-79
2023/09/28 08:00:03;;;;;;;12.73;3.60;;;18.70;92.30;;;;;;5058437;28;20048;-79
2023/09/28 08:02:29;;;;;;;12.95;3.50;;;18.80;92.30;;;;;;5042298;28;20033;-79
2023/09/28 08:04:55;;;;;;;11.18;3.28;;;18.90;92.20;;;;;;5058691;28;20021;-79
2023/09/28 08:07:22;;;;;;;13.30;3.20;;;18.90;91.70;;;;;;5058577;28;20029;-79
2023/09/28 08:09:48;;;;;;;15.90;3.47;;;18.90;91.30;;;;;;5042176;28;20067;-79
2023/09/28 08:12:13;;;;;;;10.88;2.95;;;18.90;91.30;;;;;;5058629;28;20484;-79
2023/09/28 08:14:39;;;;;;;14.38;3.53;;;18.90;91.40;;;;;;5041735;28;20029;-79
2023/09/28 08:17:06;;;;;;;15.13;3.40;;;19.00;91.80;;;;;;5076005;28;20029;-79
2023/09/28 08:19:32;;;;;;;11.88;3.33;;;19.00;91.90;;;;;;5058247;28;20033;-79
2023/09/28 08:21:57;;;;;;;13.32;2.67;;;19.10;91.80;;;;;;5058528;28;20041;-79
2023/09/28 08:24:23;;;;;;;17.92;3.15;;;19.20;91.10;;;;;;5076010;28;20417;-79
2023/09/28 08:26:50;;;;;;;14.38;2.58;;;19.20;91.10;;;;;;5058314;28;20033;-79
2023/09/28 08:29:18;;;;;;;10.63;2.30;;;19.30;91.10;;;;;;5058512;28;20114;-79
2023/09/28 08:31:43;;;;;;;12.35;2.50;;;19.40;91.00;;;;;;5058303;28;20041;-80
2023/09/28 08:34:09;;;;;;;10.15;2.40;;;19.60;90.90;;;;;;5057770;28;20060;-79
2023/09/28 08:36:35;;;;;;;19.90;2.95;;;19.60;90.50;;;;;;5075676;28;20017;-78
2023/09/28 08:39:02;;;;;;;10.60;2.70;;;19.50;90.40;;;;;;5075636;28;20021;-79
2023/09/28 08:41:44;;;;;;;14.57;2.70;;;19.60;90.20;;;;;;5041494;28;20029;-78
2023/09/28 08:44:10;;;;;;;;;;;19.60;89.40;;;;;;5075959;28;20043;-79
2023/09/28 08:46:39;;;;;;;12.25;2.22;;;19.60;89.30;;;;;;5057771;28;20348;-78
2023/09/28 08:49:06;;;;;;;13.52;1.80;;;19.70;89.80;;;;;;5058253;28;20025;-78
2023/09/28 08:51:35;;;;;;;14.77;2.65;;;19.60;88.10;;;;;;5075231;28;20025;-78
2023/09/28 08:54:04;;;;;;;13.27;2.22;;;19.70;89.20;;;;;;5057407;28;20051;-78
2023/09/28 08:56:34;;;;;;;14.25;2.25;;;19.80;88.80;;;;;;5075347;28;20017;-79
2023/09/28 08:59:02;;;;;;;11.65;2.25;;;19.70;87.90;;;;;;5041502;28;20045;-78
2023/09/28 09:01:30;;;;;;;12.32;3.15;;;19.80;87.60;;;;;;5075105;28;20021;-78
2023/09/28 09:03:57;;;;;;;15.07;2.60;;;19.80;88.10;;;;;;5056988;28;20024;-78
2023/09/28 09:06:24;;;;;;;12.57;3.00;;;19.80;88.20;;;;;;5057714;28;20088;-78
2023/09/28 09:08:50;;;;;;;12.70;2.47;;;19.80;87.20;;;;;;5040858;28;20025;-78
2023/09/28 09:11:16;;;;;;;13.75;2.45;;;19.70;87.50;;;;;;5057287;28;20017;-78
2023/09/28 09:13:54;;;;;;;11.80;2.75;;;19.80;87.30;;;;;;5057187;28;20434;-80
2023/09/28 09:16:22;;;;;;;15.40;2.42;;;19.90;87.40;;;;;;5074970;28;20036;-79
2023/09/28 09:18:48;;;;;;;16.52;2.45;;;20.00;86.90;;;;;;5057289;28;20017;-79
2023/09/28 09:21:14;;;;;;;15.00;2.95;;;20.00;87.20;;;;;;5057200;28;20031;-79
2023/09/28 09:23:40;;;;;;;10.85;3.08;;;19.90;86.40;;;;;;5074698;28;20032;-80
2023/09/28 09:26:17;;;;;;;12.57;2.92;;;19.90;86.30;;;;;;5074710;28;20048;-78
2023/09/28 09:28:46;;;;;;;15.95;2.90;;;19.90;87.60;;;;;;5056908;28;20021;-78
2023/09/28 09:31:13;;;;;;;10.60;2.65;;;19.90;86.50;;;;;;5074401;28;20080;-78
2023/09/28 09:33:39;;;;;;;14.02;2.83;;;19.90;88.40;;;;;;5074425;28;20043;-79
2023/09/28 09:36:05;;;;;;;10.18;2.60;;;19.80;86.60;;;;;;5074584;28;20045;-79
2023/09/28 09:38:32;;;;;;;13.95;3.38;;;19.80;86.90;;;;;;5040397;28;20028;-79
2023/09/28 09:41:02;;;;;;;16.00;3.55;;;19.80;87.50;;;;;;5074346;28;20032;-79
2023/09/28 09:43:34;;;;;;;11.98;3.00;;;19.90;86.20;;;;;;5074409;28;20051;-79
2023/09/28 09:46:07;;;;;;;13.55;3.80;;;19.90;87.10;;;;;;5056833;28;20036;-80
2023/09/28 09:48:43;;;;;;;11.43;3.30;;;19.90;86.00;;;;;;5056458;28;20021;-79
2023/09/28 09:51:12;;;;;;;11.30;3.50;;;19.90;86.50;;;;;;5056946;28;20025;-80
2023/09/28 09:53:45;;;;;;;16.92;3.67;;;20.00;86.70;;;;;;5039979;28;20039;-81
2023/09/28 09:56:12;;;;;;;16.73;4.15;;;20.10;86.10;;;;;;5040077;28;20121;-81
2023/09/28 09:58:47;;;;;;;14.00;4.47;;;20.20;86.00;;;;;;5056227;28;20056;-80
2023/09/28 10:01:14;;;;;;;16.33;3.70;;;20.30;85.60;;;;;;5056466;28;20025;-80
2023/09/28 10:03:51;;;;;;;10.85;3.55;;;20.30;85.40;;;;;;5073971;28;20021;-79
2023/09/28 10:06:19;;;;;;;11.80;3.72;;;20.40;85.40;;;;;;5073972;28;20033;-80
2023/09/28 10:08:46;;;;;;;13.07;4.40;;;20.40;85.00;;;;;;5056228;28;20029;-79
2023/09/28 10:11:13;;;;;;;15.05;4.28;;;20.40;85.10;;;;;;5056633;28;20025;-80
2023/09/28 10:13:39;;;;;;;13.27;3.97;;;20.40;84.50;;;;;;5055968;28;20039;-82
2023/09/28 10:16:08;;;;;;;15.60;4.22;;;20.40;84.40;;;;;;5073098;28;20072;-81
2023/09/28 10:18:36;;;;;;;20.02;4.53;;;20.30;84.50;;;;;;5073641;28;20040;-80
2023/09/28 10:21:02;;;;;;;20.42;4.63;;;20.30;84.40;;;;;;5056075;28;20075;-80
2023/09/28 10:23:31;;;;;;;13.18;4.63;;;20.30;84.70;;;;;;5073607;28;20058;-80
2023/09/28 10:26:03;;;;;;;20.02;4.60;;;20.40;84.30;;;;;;5039802;28;20021;-80
2023/09/28 10:28:28;;;;;;;13.82;4.57;;;20.40;84.40;;;;;;5055872;28;20025;-80
2023/09/28 10:31:11;;;;;;;10.95;3.90;;;20.30;84.60;;;;;;5039434;28;20037;-80
2023/09/28 10:33:58;;;;;;;16.95;4.15;;;20.20;85.10;;;;;;5055747;28;20033;-79
2023/09/28 10:36:26;;;;;;;7.80;3.90;;;20.30;85.30;;;;;;5063526;28;20479;-79
2023/09/28 10:39:06;;;;;;;16.25;4.32;;;20.40;85.10;;;;;;5073329;28;20093;-79
2023/09/28 10:41:32;;;;;;;9.32;4.13;;;20.50;84.90;;;;;;5055741;28;20028;-79
2023/09/28 10:43:57;;;;;;;14.48;5.22;;;20.60;85.40;;;;;;5055826;28;20025;-79
2023/09/28 10:46:23;;;;;;;12.52;4.28;;;20.60;84.60;;;;;;5022716;28;20029;-78
2023/09/28 10:48:51;;;;;;;18.73;4.35;;;20.70;83.90;;;;;;5073261;28;20048;-79
2023/09/28 10:51:21;;;;;;;15.48;4.28;;;20.80;82.80;;;;;;5056084;28;20025;-79
2023/09/28 10:53:47;;;;;;;10.68;3.38;;;20.80;81.60;;;;;;5073096;28;20034;-78
2023/09/28 10:56:13;;;;;;;9.63;3.20;;;20.70;81.50;;;;;;5073141;28;20013;-79
2023/09/28 10:58:41;;;;;;;14.45;3.90;;;20.60;81.00;;;;;;5038892;28;20045;-78
2023/09/28 11:01:07;;;;;;;13.57;3.60;;;20.70;82.10;;;;;;5055509;28;20024;-78
2023/09/28 11:03:34;;;;;;;13.95;4.00;;;20.80;82.40;;;;;;5055633;28;20029;-78
2023/09/28 11:06:04;;;;;;;15.18;4.10;;;21.00;83.00;;;;;;5073095;28;20025;-80
2023/09/28 11:08:33;;;;;;;13.02;3.55;;;21.20;83.60;;;;;;5073221;28;20021;-80
2023/09/28 11:11:01;;;;;;;11.30;3.90;;;21.30;82.60;;;;;;5073094;28;20093;-79
2023/09/28 11:13:27;;;;;;;14.63;2.80;;;21.40;81.60;;;;;;5055312;28;20025;-79
2023/09/28 11:15:53;;;;;;;13.13;3.53;;;21.40;81.10;;;;;;5055302;28;20425;-80
2023/09/28 11:18:21;;;;;;;13.20;3.47;;;21.30;82.00;;;;;;5055604;28;20032;-80
2023/09/28 11:20:47;;;;;;;15.52;3.50;;;21.40;81.10;;;;;;5055471;28;20029;-80
2023/09/28 11:23:13;;;;;;;12.63;2.90;;;21.40;81.30;;;;;;5055348;28;20029;-80
2023/09/28 11:25:40;;;;;;;10.73;2.13;;;21.40;81.50;;;;;;5039409;28;20044;-81
2023/09/28 11:28:07;;;;;;;7.00;2.05;;;21.40;79.00;;;;;;5042844;28;20047;-81
2023/09/28 11:30:33;;;;;;;14.23;2.90;;;21.20;80.60;;;;;;5059256;28;20434;-82
2023/09/28 11:33:03;;;;;;;10.00;2.33;;;21.30;81.90;;;;;;5059382;28;20053;-80
2023/09/28 11:35:34;;;;;;;6.22;2.45;;;21.30;81.20;;;;;;5076684;28;20025;-81
2023/09/28 11:38:06;;;;;;;9.75;2.28;;;21.30;80.70;;;;;;5059743;28;20029;-81
2023/09/28 11:40:32;;;;;;;9.95;2.28;;;21.10;80.00;;;;;;5059231;28;20059;-82
2023/09/28 11:42:59;;;;;;;8.88;2.78;;;21.20;80.60;;;;;;5059143;28;20043;-82
2023/09/28 11:45:30;;;;;;;9.98;2.35;;;21.20;80.80;;;;;;5059080;28;20036;-81
2023/09/28 11:47:55;;;;;;;11.68;2.33;;;21.20;81.00;;;;;;5059693;28;20078;-81
2023/09/28 11:50:23;;;;;;;9.75;2.22;;;21.10;81.30;;;;;;5059058;28;20029;-81
2023/09/28 11:52:50;;;;;;;10.88;2.50;;;21.20;81.60;;;;;;5042439;28;20028;-82
2023/09/28 11:55:17;;;;;;;11.63;2.30;;;21.20;81.70;;;;;;5076447;28;20041;-81
2023/09/28 11:57:45;;;;;;;11.18;3.13;;;21.30;81.20;;;;;;5076388;28;20017;-81
2023/09/28 12:00:21;;;;;;;12.43;2.50;;;21.40;80.70;;;;;;5076195;28;20108;-81
2023/09/28 12:02:48;;;;;;;12.27;2.30;;;21.40;81.30;;;;;;5027386;28;20040;-81
2023/09/28 12:05:14;;;;;;;15.95;2.92;;;21.50;80.60;;;;;;5076286;28;20050;-80
2023/09/28 12:07:43;;;;;;;10.85;2.40;;;21.50;81.10;;;;;;5042322;28;20029;-81
2023/09/28 12:10:14;;;;;;;13.25;2.42;;;21.40;81.10;;;;;;5042389;28;20024;-81
2023/09/28 12:12:40;;;;;;;8.25;2.40;;;21.50;80.60;;;;;;5076255;28;20060;-81
2023/09/28 12:15:10;;;;;;;10.55;2.20;;;21.40;80.30;;;;;;5041958;28;20029;-81
2023/09/28 12:17:40;;;;;;;11.80;2.72;;;21.50;80.90;;;;;;5075908;28;20021;-81
2023/09/28 12:20:08;;;;;;;10.48;2.30;;;21.40;80.60;;;;;;5042384;28;20024;-81
2023/09/28 12:22:34;;;;;;;11.55;2.30;;;21.50;81.20;;;;;;5058453;28;20052;-81
2023/09/28 12:25:01;;;;;;;11.13;2.67;;;21.50;80.20;;;;;;5058311;28;20033;-81
2023/09/28 12:27:30;;;;;;;11.82;2.13;;;21.60;79.20;;;;;;5042147;28;20051;-82
2023/09/28 12:29:55;;;;;;;11.05;2.30;;;21.60;78.30;;;;;;5058768;28;20060;-82
2023/09/28 12:32:22;;;;;;;13.00;2.40;;;21.70;78.80;;;;;;5058201;28;20021;-82
2023/09/28 12:34:47;;;;;;;12.43;2.40;;;21.70;77.30;;;;;;5057833;28;20500;-82
2023/09/28 12:37:13;;;;;;;9.35;2.05;;;21.70;77.40;;;;;;5057243;28;20047;-81
2023/09/28 12:39:39;;;;;;;11.75;2.40;;;21.70;76.90;;;;;;5041344;28;20064;-82
2023/09/28 12:42:04;;;;;;;10.32;1.67;;;21.80;77.90;;;;;;5041289;28;20021;-82